Latest Weather Observations for Shark Bay Airport

IDW60801

Issued at 12:32 pm WST Wednesday 29 July 2015 (issued every 30 minutes, with the page automatically refreshed every 10 minutes)

About weather observations | Map of weather stations | Latest weather observations for WA | Other Formats
Station Details ID: 006105 Name: SHARK BAY AIRPORT Lat: -25.89 Lon: 113.58 Height: 33.8 m
Data from the previous 72 hours. | See also: Recent months for locations in Western Australia
Date/Time
WST
Temp
°C
App
Temp
°C
Dew
Point
Rel
Hum
%
Delta-T
°C
Wind Press
QNH
hPa
Press
MSL
hPa
Rain
since 9 am
mm
Dir
 
Spd
km/h
Gust
km/h
Spd
kts
Gust
kts
29/12:30pm 25.8 25.9 19.9 70 3.8 NNW 19 26 10 14 1019.3 1019.3 0.2
29/12:00pm 25.1 24.8 20.4 75 3.1 NW 22 28 12 15 1019.8 1019.8 0.2
29/11:30am 24.0 24.2 20.5 81 2.3 NW 20 26 11 14 1020.2 1020.2 0.2
29/11:00am 23.5 24.1 21.0 86 1.6 NW 19 26 10 14 1020.5 1020.5 0.2
29/10:30am 22.8 23.7 20.9 89 1.2 NNW 17 26 9 14 1020.6 1020.6 0.2
29/10:00am 22.5 24.7 21.1 92 0.9 N 11 17 6 9 1020.6 1020.6 0.2
29/09:30am 21.6 23.0 20.4 93 0.8 N 13 15 7 8 1020.5 1020.5 0.2
29/09:00am 21.3 22.6 20.1 93 0.8 N 13 15 7 8 1020.5 1020.5 3.8
29/08:30am 20.7 22.1 19.5 93 0.8 N 11 15 6 8 1020.3 1020.3 3.8
29/08:00am 20.4 21.7 19.2 93 0.8 N 11 19 6 10 1020.0 1020.0 3.8
29/07:30am 20.2 21.4 19.0 93 0.8 NNE 11 15 6 8 1019.5 1019.5 3.8
29/07:00am 20.2 21.7 18.9 92 0.8 NNE 9 11 5 6 1019.2 1019.2 3.8
29/06:30am 20.1 21.6 18.8 92 0.8 NNE 9 11 5 6 1018.8 1018.8 3.8
29/06:00am 20.1 21.6 18.8 92 0.8 N 9 13 5 7 1018.7 1018.7 3.8
29/05:30am 20.2 21.7 18.9 92 0.8 N 9 11 5 6 1018.4 1018.4 3.8
29/05:00am 20.3 21.8 19.0 92 0.8 N 9 11 5 6 1018.5 1018.5 3.6
29/04:30am 20.1 21.9 18.8 92 0.8 NNE 7 9 4 5 1018.4 1018.4 3.6
29/04:00am 20.2 22.1 18.9 92 0.8 NNE 7 9 4 5 1018.5 1018.5 3.6
29/03:30am 20.3 22.2 19.0 92 0.8 NNW 7 7 4 4 1018.5 1018.5 3.6
29/03:00am 20.3 22.2 19.0 92 0.8 N 7 11 4 6 1018.7 1018.7 3.6
29/02:30am 20.3 22.2 19.0 92 0.8 NNW 7 9 4 5 1018.9 1018.9 3.6
29/02:00am 20.5 22.5 19.2 92 0.8 NNW 7 9 4 5 1019.1 1019.1 3.6
29/01:30am 20.6 21.8 19.1 91 0.9 NW 11 13 6 7 1019.2 1019.2 3.6
29/01:00am 20.6 22.2 19.1 91 0.9 W 9 13 5 7 1019.5 1019.5 3.6
29/12:30am 21.0 22.3 19.3 90 1.1 NNW 11 13 6 7 1019.4 1019.4 1.4
29/12:00am 21.3 22.2 19.2 88 1.3 NNW 13 17 7 9 1019.5 1019.5 0.0
 
Date/Time
WST
Temp
°C
App
Temp
°C
Dew
Point
Rel
Hum
%
Delta-T
°C
Wind Press
QNH
hPa
Press
MSL
hPa
Rain
since 9 am
mm
Dir
 
Spd
km/h
Gust
km/h
Spd
kts
Gust
kts
28/11:30pm 21.5 22.5 19.4 88 1.3 NNW 13 17 7 9 1019.7 1019.7 0.0
28/11:00pm 21.7 22.3 19.4 87 1.5 NNW 15 20 8 11 1019.8 1019.8 0.0
28/10:30pm 21.7 22.2 19.3 86 1.5 NNW 15 20 8 11 1019.9 1019.9 0.0
28/10:00pm 21.8 21.9 19.2 85 1.6 NNW 17 22 9 12 1020.0 1020.0 0.0
28/09:30pm 21.9 22.0 19.1 84 1.8 NNW 17 22 9 12 1019.9 1019.9 0.0
28/09:00pm 21.8 22.2 19.0 84 1.8 NNW 15 20 8 11 1019.8 1019.8 0.0
28/08:30pm 21.8 22.1 18.8 83 1.9 NNW 15 19 8 10 1019.8 1019.8 0.0
28/08:00pm 21.8 22.1 18.8 83 1.9 NNW 15 22 8 12 1019.8 1019.8 0.0
28/07:30pm 21.8 22.5 18.8 83 1.9 NW 13 19 7 10 1019.5 1019.5 0.0
28/07:00pm 21.7 21.5 18.5 82 2.0 NW 17 24 9 13 1019.3 1019.3 0.0
28/06:30pm 22.0 21.5 18.6 81 2.1 NW 19 24 10 13 1019.2 1019.2 0.0
28/06:00pm 22.2 21.5 18.2 78 2.5 NW 19 24 10 13 1018.9 1018.9 0.0
28/05:30pm 22.8 21.1 18.1 75 2.9 NNW 24 35 13 19 1018.7 1018.7 0.0
28/05:00pm 23.1 21.4 18.0 73 3.2 NNW 24 35 13 19 1018.5 1018.5 0.0
28/04:30pm 23.7 20.7 17.7 69 3.7 NNW 30 43 16 23 1018.3 1018.3 0.0
28/04:00pm 24.4 21.7 17.6 66 4.2 NNW 28 39 15 21 1018.3 1018.3 0.0
28/03:30pm 24.7 22.1 17.7 65 4.4 NNW 28 39 15 21 1018.0 1018.0 0.0
28/03:00pm 24.8 22.2 17.8 65 4.4 NNW 28 39 15 21 1017.9 1017.9 0.0
28/02:30pm 25.0 21.6 17.7 64 4.6 NNW 32 43 17 23 1017.9 1017.9 0.0
28/02:00pm 25.8 22.0 17.2 59 5.4 NNW 33 46 18 25 1017.9 1017.9 0.0
28/01:30pm 26.3 22.8 17.4 58 5.6 NNW 32 43 17 23 1018.2 1018.2 0.0
28/01:01pm 26.5 23.1 17.6 58 5.6 NNW 32 50 17 27 1018.6 1018.6 0.0
28/01:00pm 26.6 23.0 17.7 58 5.6 NNW 33 50 18 27 1018.6 1018.6 0.0
28/12:30pm 26.2 22.5 17.0 57 5.7 NNW 32 46 17 25 1019.1 1019.1 0.0
28/12:00pm 26.0 22.1 16.5 55 5.9 NNW 32 44 17 24 1019.4 1019.4 0.0
28/11:30am 25.1 21.7 16.8 60 5.1 NNW 30 41 16 22 1019.9 1019.9 0.0
28/11:00am 24.7 21.5 17.2 63 4.6 NNW 30 41 16 22 1020.0 1020.0 0.0
28/10:30am 24.2 22.1 17.2 65 4.3 NNW 24 35 13 19 1020.4 1020.4 0.0
28/10:00am 23.1 22.1 17.6 71 3.4 N 19 28 10 15 1020.5 1020.5 0.0
28/09:30am 22.7 21.2 17.6 73 3.2 N 22 33 12 18 1020.3 1020.3 0.0
28/09:00am 21.9 21.3 17.5 76 2.7 N 17 26 9 14 1020.0 1020.0 0.0
28/08:30am 20.3 19.2 16.3 78 2.4 NNE 17 22 9 12 1020.0 1020.0 0.0
28/08:00am 17.6 17.3 14.5 82 1.8 NE 9 13 5 7 1020.2 1020.2 0.0
28/07:30am 16.3 14.9 13.4 83 1.6 NNE 13 15 7 8 1019.7 1019.7 0.0
28/07:00am 16.3 14.8 13.0 81 1.8 NNE 13 15 7 8 1019.3 1019.3 0.0
28/06:30am 16.8 15.1 13.7 82 1.8 NNE 15 20 8 11 1018.8 1018.8 0.0
28/06:00am 13.5 11.3 10.7 83 1.5 NNE 13 15 7 8 1018.7 1018.7 0.0
28/05:30am 14.2 12.8 10.8 80 1.8 NNE 9 11 5 6 1018.7 1018.7 0.0
28/05:00am 14.7 12.2 10.9 78 2.0 NE 15 17 8 9 1018.5 1018.5 0.0
28/04:30am 15.1 13.7 10.9 76 2.2 NNE 9 11 5 6 1019.1 1019.1 0.0
28/04:00am 15.0 13.3 10.0 72 2.6 NE 9 11 5 6 1019.2 1019.2 0.0
28/03:30am 15.8 13.9 10.6 71 2.8 NNE 11 13 6 7 1019.2 1019.2 0.0
28/03:00am 15.4 13.9 10.6 73 2.5 NE 9 13 5 7 1019.5 1019.5 0.0
28/02:30am 15.6 14.0 10.2 70 2.8 NNE 9 13 5 7 1019.8 1019.8 0.0
28/02:00am 16.3 14.7 10.2 67 3.2 NNE 9 11 5 6 1020.1 1020.1 0.0
28/01:30am 16.9 15.3 10.1 64 3.6 N 9 11 5 6 1020.6 1020.6 0.0
28/01:00am 16.3 15.2 10.6 69 3.0 NNE 7 9 4 5 1020.6 1020.6 0.0
28/12:30am 15.5 14.7 10.9 74 2.4 ENE 6 7 3 4 1020.6 1020.6 0.0
28/12:00am 15.7 14.6 10.7 72 2.6 ENE 7 9 4 5 1020.8 1020.8 0.0
 
Date/Time
WST
Temp
°C
App
Temp
°C
Dew
Point
Rel
Hum
%
Delta-T
°C
Wind Press
QNH
hPa
Press
MSL
hPa
Rain
since 9 am
mm
Dir
 
Spd
km/h
Gust
km/h
Spd
kts
Gust
kts
27/11:30pm 16.8 15.8 11.1 69 3.1 NE 7 7 4 4 1021.3 1021.3 0.0
27/11:00pm 16.5 15.1 11.0 70 2.9 NE 9 11 5 6 1021.4 1021.4 0.0
27/10:30pm 17.6 18.0 11.4 67 3.4 CALM 0 0 0 0 1021.2 1021.2 0.0
27/10:00pm 17.9 17.2 12.1 69 3.2 SE 7 9 4 5 1021.2 1021.2 0.0
27/09:30pm 17.9 16.8 12.1 69 3.2 SE 9 11 5 6 1021.3 1021.3 0.0
27/09:00pm 18.6 17.8 11.2 62 4.0 SSW 6 7 3 4 1021.8 1021.8 0.0
27/08:30pm 18.5 17.8 11.3 63 3.9 WSW 6 7 3 4 1021.9 1021.9 0.0
27/08:00pm 18.5 17.6 11.3 63 3.9 WSW 7 7 4 4 1021.8 1021.8 0.0
27/07:30pm 18.9 18.1 11.0 60 4.3 SSE 6 7 3 4 1021.4 1021.4 0.0
27/07:00pm 18.9 17.9 11.0 60 4.3 SSE 7 7 4 4 1021.1 1021.1 0.0
27/06:30pm 19.1 18.2 11.2 60 4.3 SSW 7 9 4 5 1020.8 1020.8 0.0
27/06:00pm 20.3 19.3 11.0 55 5.1 W 7 9 4 5 1020.5 1020.5 0.0
27/05:30pm 22.0 20.8 10.2 47 6.4 NE 7 9 4 5 1020.3 1020.3 0.0
27/05:00pm 23.7 20.9 8.5 38 8.1 NNE 13 15 7 8 1020.1 1020.1 0.0
27/04:30pm 24.2 21.3 8.2 36 8.5 NNE 13 17 7 9 1020.2 1020.2 0.0
27/04:00pm 24.8 21.2 8.3 35 8.8 NNE 17 22 9 12 1020.3 1020.3 0.0
27/03:30pm 24.9 21.8 8.8 36 8.7 NNE 15 24 8 13 1020.5 1020.5 0.0
27/03:00pm 24.7 20.6 7.8 34 8.9 NNE 19 24 10 13 1020.3 1020.3 0.0
27/02:30pm 24.4 20.3 8.0 35 8.7 NNE 19 30 10 16 1020.4 1020.4 0.0
27/02:00pm 24.3 20.3 8.3 36 8.5 NNE 19 28 10 15 1020.6 1020.6 0.0
27/01:30pm 23.6 19.4 8.1 37 8.2 NNE 20 28 11 15 1021.2 1021.2 0.0
27/01:00pm 22.9 18.4 7.0 36 8.2 NNE 20 30 11 16 1021.8 1021.8 0.0
27/12:30pm 22.5 18.1 7.5 38 7.8 NE 20 32 11 17 1022.3 1022.3 0.0
27/12:00pm 21.8 16.9 6.9 38 7.6 NE 22 30 12 16 1023.0 1022.9 0.0
27/11:30am 21.3 16.5 7.2 40 7.2 NE 22 30 12 16 1023.5 1023.4 0.0
27/11:00am 20.6 15.8 7.2 42 6.8 NE 22 30 12 16 1023.9 1023.8 0.0
27/10:30am 19.6 14.4 7.4 45 6.2 ENE 24 35 13 19 1024.3 1024.2 0.0
27/10:00am 18.3 13.0 6.8 47 5.7 NE 24 33 13 18 1024.6 1024.5 0.0
27/09:30am 18.2 12.4 6.4 46 5.8 NE 26 33 14 18 1024.7 1024.6 0.0
27/09:00am 17.5 12.1 6.4 48 5.4 NE 24 33 13 18 1024.5 1024.4 0.0
27/08:30am 16.2 12.4 7.7 57 4.3 ENE 17 22 9 12 1024.4 1024.3 0.0
27/08:00am 14.2 10.3 7.3 63 3.4 ENE 17 20 9 11 1024.3 1024.2 0.0
27/07:30am 12.0 7.5 6.9 71 2.4 ENE 20 22 11 12 1024.1 1024.0 0.0
27/07:00am 11.2 6.8 6.5 73 2.2 ENE 19 20 10 11 1024.0 1023.9 0.0
27/06:30am 11.0 6.6 6.4 73 2.2 E 19 20 10 11 1023.7 1023.6 0.0
27/06:00am 10.7 6.9 5.9 72 2.2 E 15 17 8 9 1023.7 1023.6 0.0
27/05:30am 11.9 7.8 6.0 67 2.8 E 17 20 9 11 1023.4 1023.3 0.0
27/05:00am 11.8 7.7 6.3 69 2.6 E 17 20 9 11 1023.3 1023.2 0.0
27/04:30am 11.5 7.8 6.2 70 2.5 E 15 17 8 9 1023.6 1023.5 0.0
27/04:00am 11.4 7.3 6.3 71 2.4 E 17 20 9 11 1023.5 1023.4 0.0
27/03:30am 11.0 6.9 6.2 72 2.2 E 17 19 9 10 1023.5 1023.4 0.0
27/03:00am 12.4 8.4 6.7 68 2.7 E 17 20 9 11 1023.7 1023.6 0.0
27/02:30am 11.4 7.5 6.9 74 2.1 ENE 17 20 9 11 1023.6 1023.5 0.0
27/02:00am 11.9 8.7 6.8 71 2.4 E 13 17 7 9 1024.1 1024.0 0.0
27/01:30am 12.9 8.6 7.8 71 2.5 E 20 26 11 14 1024.0 1023.9 0.0
27/01:00am 11.6 7.8 7.7 77 1.9 E 17 20 9 11 1024.5 1024.4 0.0
27/12:30am 10.9 7.0 7.2 78 1.8 ESE 17 19 9 10 1024.9 1024.8 0.0
27/12:00am 12.0 7.9 7.7 75 2.1 ESE 19 20 10 11 1025.2 1025.1 0.0
 
Date/Time
WST
Temp
°C
App
Temp
°C
Dew
Point
Rel
Hum
%
Delta-T
°C
Wind Press
QNH
hPa
Press
MSL
hPa
Rain
since 9 am
mm
Dir
 
Spd
km/h
Gust
km/h
Spd
kts
Gust
kts
26/11:30pm 12.2 8.2 8.1 76 2.0 ESE 19 22 10 12 1025.1 1025.0 0.0
26/11:00pm 12.1 8.5 8.2 77 1.9 ESE 17 20 9 11 1025.6 1025.5 0.0
26/10:30pm 8.9 4.7 5.8 81 1.4 ESE 17 19 9 10 1025.6 1025.5 0.0
26/10:00pm 8.9 4.9 4.7 75 1.9 SE 15 15 8 8 1025.8 1025.7 0.0
26/09:30pm 9.3 6.0 4.3 71 2.2 E 11 13 6 7 1025.7 1025.6 0.0
26/09:00pm 11.3 8.3 5.8 69 2.5 ESE 11 11 6 6 1025.6 1025.5 0.0
26/08:30pm 11.2 7.5 4.7 64 2.9 ESE 13 13 7 7 1025.2 1025.1 0.0
26/08:00pm 11.7 8.3 4.2 60 3.4 ESE 11 13 6 7 1025.0 1024.9 0.0
26/07:30pm 13.4 9.6 4.0 53 4.3 E 13 15 7 8 1024.9 1024.8 0.0
26/07:00pm 15.7 11.2 4.4 47 5.3 SE 17 20 9 11 1024.1 1024.0 0.0
26/06:30pm 15.1 11.0 4.5 49 4.9 SE 15 20 8 11 1023.8 1023.7 0.0
26/06:00pm 16.4 12.9 3.5 42 5.9 SE 11 15 6 8 1023.8 1023.7 0.0
26/05:30pm 18.5 13.3 2.4 34 7.4 SE 19 26 10 14 1023.5 1023.4 0.0
26/05:00pm 19.5 14.0 1.9 31 8.0 ESE 20 28 11 15 1023.7 1023.6 0.0
26/04:30pm 20.0 15.2 2.4 31 8.2 ESE 17 24 9 13 1024.0 1023.9 0.0
26/04:00pm 20.1 14.3 2.5 31 8.1 ESE 22 30 12 16 1023.9 1023.8 0.0
26/03:30pm 20.2 14.1 3.0 32 8.1 ESE 24 33 13 18 1023.8 1023.7 0.0
26/03:00pm 20.2 14.1 2.5 31 8.2 ESE 24 32 13 17 1023.8 1023.7 0.0
26/02:30pm 20.0 13.0 1.9 30 8.3 ESE 28 37 15 20 1024.3 1024.2 0.0
26/02:00pm 20.0 13.5 2.8 32 8.0 ESE 26 35 14 19 1024.6 1024.5 0.0
26/01:30pm 19.8 14.2 3.5 34 7.7 E 22 32 12 17 1024.9 1024.8 0.0
26/01:00pm 19.3 13.4 3.9 36 7.3 E 24 35 13 19 1025.5 1025.4 0.0

Other Formats:

Comma delimited format used in spreadsheet applications
http://www.bom.gov.au/fwo/IDW60801/IDW60801.95402.axf

JavaScript Object Notation format (JSON) in row-major order
http://www.bom.gov.au/fwo/IDW60801/IDW60801.95402.json